Time;durP1;ratioP1;P1;durP2;ratioP2;P2;SDS_P1;SDS_P2;PMS_P1;PMS_P2;Temp;Humidity;BMP_temperature;BMP_pressure;BME280_temperature;BME280_humidity;BME280_pressure;Samples;Min_cycle;Max_cycle;Signal;HPM_P1;HPM_P2
2022/05/25 00:01:33;;;;;;;4.88;1.85;;;;;;;22.36;36.69;100535.88;5104900;28;20029;-75
2022/05/25 00:04:00;;;;;;;4.10;1.48;;;;;;;22.23;36.71;100529.16;5072281;28;20036;-75
2022/05/25 00:06:26;;;;;;;4.43;1.55;;;;;;;22.16;37.04;100535.50;5072377;28;20039;-75
2022/05/25 00:08:52;;;;;;;3.80;1.65;;;;;;;22.22;36.73;100521.97;5072005;28;20036;-79
2022/05/25 00:11:18;;;;;;;5.68;2.38;;;;;;;22.23;37.17;100518.03;5072402;28;20493;-75
2022/05/25 00:13:44;;;;;;;7.82;2.05;;;;;;;22.21;36.97;100514.81;5070990;28;20024;-75
2022/05/25 00:16:10;;;;;;;10.18;2.17;;;;;;;22.12;37.44;100507.66;5072112;28;20036;-75
2022/05/25 00:18:36;;;;;;;6.03;1.95;;;;;;;22.14;37.20;100510.03;5072004;28;20482;-75
2022/05/25 00:21:02;;;;;;;7.65;1.50;;;;;;;22.14;37.37;100508.09;5072192;28;20031;-75
2022/05/25 00:23:28;;;;;;;7.47;2.85;;;;;;;22.19;37.54;100512.44;5072299;28;20039;-75
2022/05/25 00:25:54;;;;;;;7.28;2.35;;;;;;;22.02;38.02;100502.06;5071977;28;20053;-75
2022/05/25 00:28:20;;;;;;;5.97;2.00;;;;;;;22.04;37.77;100497.69;5071886;28;20490;-75
2022/05/25 00:30:46;;;;;;;5.13;2.22;;;;;;;22.03;37.85;100496.09;5072476;28;20035;-75
2022/05/25 00:33:12;;;;;;;5.40;2.13;;;;;;;22.05;38.02;100488.16;5071810;28;20044;-75
2022/05/25 00:35:39;;;;;;;3.67;1.48;;;;;;;21.70;38.81;100482.56;5072880;28;20032;-75
2022/05/25 00:38:07;;;;;;;5.93;2.13;;;;;;;21.77;38.54;100474.25;5075913;28;20449;-75
2022/05/25 00:40:37;;;;;;;4.80;1.70;;;;;;;21.83;38.87;100470.66;5076131;28;20024;-75
2022/05/25 00:43:03;;;;;;;5.28;2.05;;;;;;;21.81;38.52;100472.25;5075979;28;20483;-75
2022/05/25 00:45:34;;;;;;;7.15;2.10;;;;;;;21.83;38.64;100464.28;5076039;28;20078;-76
2022/05/25 00:48:01;;;;;;;3.67;2.08;;;;;;;21.82;38.49;100457.16;5074847;28;20039;-74
2022/05/25 00:51:11;;;;;;;3.80;1.85;;;;;;;21.83;38.65;100451.19;5075267;28;20078;-74
2022/05/25 00:53:13;;;;;;;3.85;2.00;;;;;;;21.81;38.79;100447.22;5075584;28;20021;-75
2022/05/25 00:55:40;;;;;;;5.47;1.50;;;;;;;21.76;38.81;100440.06;5075818;28;20039;-80
2022/05/25 00:58:06;;;;;;;3.92;1.70;;;;;;;21.79;38.75;100446.84;5075296;28;20470;-75
2022/05/25 01:00:31;;;;;;;5.50;2.05;;;;;;;21.76;39.08;100433.69;5074369;28;20017;-75
2022/05/25 01:03:01;;;;;;;3.38;1.63;;;;;;;21.71;39.07;100429.34;5074060;28;20101;-76
2022/05/25 01:05:32;;;;;;;5.88;1.92;;;;;;;21.73;39.12;100428.94;5075597;28;20078;-77
2022/05/25 01:08:32;;;;;;;6.30;1.80;;;;;;;21.64;39.56;100425.75;5075593;28;20406;-75
2022/05/25 01:11:05;;;;;;;;;;;;;;;21.52;39.80;100416.59;5075981;28;20085;-78
2022/05/25 01:13:53;;;;;;;9.75;2.00;;;;;;;21.65;39.24;100421.78;5074224;28;20487;-76
2022/05/25 01:16:39;;;;;;;6.15;1.35;;;;;;;21.76;39.12;100417.81;5075053;28;20035;-75
2022/05/25 01:19:29;;;;;;;5.15;1.30;;;;;;;21.86;38.87;100416.25;5075417;28;20543;-79
2022/05/25 01:21:54;;;;;;;;;;;;;;;21.76;39.32;100411.47;5075769;28;20031;-75
2022/05/25 01:24:38;;;;;;;4.13;2.20;;;;;;;21.79;38.97;100405.13;5074893;28;19920;-75
2022/05/25 01:27:25;;;;;;;2.75;1.33;;;;;;;21.75;39.06;100401.53;5087576;28;20044;-75
2022/05/25 01:30:05;;;;;;;5.05;1.75;;;;;;;21.80;39.53;100395.56;5055086;28;20426;-75
2022/05/25 01:32:55;;;;;;;3.13;1.10;;;;;;;21.73;39.36;100390.00;5055098;28;20036;-75
2022/05/25 01:35:38;;;;;;;;;;;;;;;21.39;40.53;100393.19;5062595;28;20169;-75
2022/05/25 01:38:13;;;;;;;3.22;1.38;;;;;;;21.62;40.14;100389.22;5075102;28;19955;-75
2022/05/25 01:40:50;;;;;;;8.00;1.55;;;;;;;21.64;40.53;100381.28;5074984;28;20020;-75
2022/05/25 01:43:30;;;;;;;3.55;1.00;;;;;;;21.66;40.15;100390.81;5073851;28;20025;-75
2022/05/25 01:46:09;;;;;;;4.03;1.63;;;;;;;21.57;40.19;100385.63;5074541;28;20055;-75
2022/05/25 01:48:39;;;;;;;12.90;1.77;;;;;;;21.62;40.20;100380.88;5074890;28;20029;-75
2022/05/25 01:51:14;;;;;;;4.85;1.50;;;;;;;21.32;41.05;100370.94;5073557;28;20489;-75
2022/05/25 01:53:44;;;;;;;5.13;1.65;;;;;;;21.42;40.88;100367.38;5074581;28;20494;-75
2022/05/25 01:56:13;;;;;;;2.80;1.25;;;;;;;21.26;41.62;100383.59;5073189;28;20036;-74
2022/05/25 01:58:42;;;;;;;6.57;1.70;;;;;;;21.27;41.32;100376.84;5073538;28;20028;-75
2022/05/25 02:01:10;;;;;;;5.85;1.58;;;;;;;21.41;40.83;100373.31;5074685;28;20024;-75
2022/05/25 02:06:53;;;;;;;4.85;1.77;;;;;;;21.27;41.84;100361.00;5074509;28;20444;-75
2022/05/25 02:09:47;;;;;;;5.60;1.73;;;;;;;21.02;42.18;100369.25;5074358;28;20033;-75
2022/05/25 02:12:43;;;;;;;5.13;1.70;;;;;;;21.29;41.53;100364.16;5074323;28;20031;-75
2022/05/25 02:15:31;;;;;;;3.65;1.60;;;;;;;21.28;41.76;100361.78;5072700;28;20036;-76
2022/05/25 02:18:17;;;;;;;3.05;2.08;;;;;;;21.47;41.06;100357.84;5074095;28;20579;-75
2022/05/25 02:20:56;;;;;;;3.47;1.17;;;;;;;21.28;41.72;100359.00;5072714;28;20086;-75
2022/05/25 02:23:42;;;;;;;5.82;1.10;;;;;;;21.30;42.00;100351.06;5072890;28;20092;-75
2022/05/25 02:26:16;;;;;;;4.43;1.70;;;;;;;21.39;41.46;100353.47;5073560;28;20380;-74
2022/05/25 02:29:09;;;;;;;8.02;1.60;;;;;;;21.31;41.84;100352.66;5074093;28;20033;-75
2022/05/25 02:31:44;;;;;;;3.80;1.42;;;;;;;21.30;42.04;100345.50;5073357;28;20041;-75
2022/05/25 02:34:13;;;;;;;2.90;1.45;;;;;;;21.43;41.64;100346.72;5072619;28;20069;-80
2022/05/25 02:36:40;;;;;;;6.05;1.67;;;;;;;21.41;41.58;100337.19;5073641;28;20042;-79
2022/05/25 02:39:09;;;;;;;4.47;1.27;;;;;;;21.39;41.73;100336.81;5073841;28;20028;-75
2022/05/25 02:41:44;;;;;;;4.85;1.23;;;;;;;21.33;41.95;100347.50;5058327;28;20573;-75
2022/05/25 02:44:09;;;;;;;5.15;1.10;;;;;;;21.38;42.00;100335.19;5053616;28;20036;-75
2022/05/25 02:46:35;;;;;;;3.67;1.00;;;;;;;21.32;42.07;100338.38;5068762;28;20016;-75
2022/05/25 02:49:01;;;;;;;3.53;1.50;;;;;;;21.39;41.88;100334.03;5073703;28;20025;-76
2022/05/25 02:51:27;;;;;;;5.20;1.60;;;;;;;21.37;42.11;100328.03;5073582;28;20036;-75
2022/05/25 02:53:52;;;;;;;4.15;1.25;;;;;;;21.38;42.21;100327.66;5073486;28;20475;-75
2022/05/25 02:56:18;;;;;;;3.33;1.25;;;;;;;21.28;42.34;100328.44;5071936;28;20040;-75
2022/05/25 02:58:44;;;;;;;2.20;0.85;;;;;;;21.40;42.07;100319.72;5072671;28;20058;-75
2022/05/25 03:01:10;;;;;;;2.25;1.17;;;;;;;21.39;42.36;100314.56;5073459;28;20032;-75
2022/05/25 03:03:37;;;;;;;4.30;1.35;;;;;;;21.39;42.23;100320.91;5073045;28;20032;-75
2022/05/25 03:06:05;;;;;;;3.47;1.17;;;;;;;21.32;42.46;100305.03;5073211;28;20024;-75
2022/05/25 03:08:32;;;;;;;2.15;0.80;;;;;;;21.51;42.01;100303.03;5073377;28;20327;-75
2022/05/25 03:10:58;;;;;;;3.22;1.10;;;;;;;21.52;41.95;100310.19;5073203;28;20055;-75
2022/05/25 03:13:23;;;;;;;2.03;0.90;;;;;;;21.33;42.46;100300.28;5072942;28;20016;-75
2022/05/25 03:15:50;;;;;;;1.38;0.93;;;;;;;21.47;42.12;100300.28;5072739;28;20036;-79
2022/05/25 03:18:16;;;;;;;2.35;0.90;;;;;;;21.51;42.05;100289.94;5073014;28;20024;-80
2022/05/25 03:20:41;;;;;;;2.88;1.10;;;;;;;21.45;42.24;100285.16;5071843;28;20382;-75
2022/05/25 03:23:07;;;;;;;2.85;0.82;;;;;;;21.53;42.09;100293.09;5072719;28;20029;-78
2022/05/25 03:25:33;;;;;;;3.80;0.85;;;;;;;21.52;42.20;100288.72;5072609;28;20448;-75
2022/05/25 03:28:02;;;;;;;1.88;0.70;;;;;;;21.47;42.34;100282.81;5072943;28;20021;-75
2022/05/25 03:30:28;;;;;;;1.70;0.93;;;;;;;21.51;42.21;100287.16;5072832;28;20552;-75
2022/05/25 03:32:54;;;;;;;1.40;0.80;;;;;;;21.52;42.24;100290.72;5072858;28;20265;-80
2022/05/25 03:35:19;;;;;;;3.15;0.80;;;;;;;21.51;42.16;100292.72;5072423;28;20091;-75
2022/05/25 03:37:45;;;;;;;2.88;0.88;;;;;;;21.46;42.53;100282.00;5071484;28;20107;-75
2022/05/25 03:40:13;;;;;;;0.73;0.50;;;;;;;21.62;42.15;100284.38;5072730;28;20383;-75
2022/05/25 03:42:41;;;;;;;1.23;0.60;;;;;;;21.60;42.11;100262.50;5072714;28;20021;-75
2022/05/25 03:45:08;;;;;;;4.13;1.10;;;;;;;21.48;42.64;100282.41;5072450;28;20145;-75
2022/05/25 03:47:34;;;;;;;2.55;0.70;;;;;;;21.45;42.81;100277.63;5072601;28;20020;-76
2022/05/25 03:49:59;;;;;;;1.75;0.70;;;;;;;21.40;43.05;100268.91;5072593;28;20474;-76
2022/05/25 03:52:25;;;;;;;1.60;0.63;;;;;;;21.39;43.01;100265.34;5072615;28;20024;-75
2022/05/25 03:54:52;;;;;;;4.18;1.33;;;;;;;21.32;43.12;100260.56;5072120;28;20087;-75
2022/05/25 03:57:18;;;;;;;2.05;0.70;;;;;;;21.42;42.92;100253.41;5072524;28;20112;-75
2022/05/25 03:59:45;;;;;;;1.10;0.60;;;;;;;21.39;43.04;100248.66;5072508;28;20098;-75
2022/05/25 04:02:12;;;;;;;4.75;0.90;;;;;;;21.33;43.29;100261.38;5072455;28;20028;-76
2022/05/25 04:04:38;;;;;;;2.90;0.80;;;;;;;21.44;43.11;100267.69;5072184;28;20111;-74
2022/05/25 04:07:03;;;;;;;1.33;0.70;;;;;;;21.38;43.22;100260.16;5072260;28;20024;-75
2022/05/25 04:09:29;;;;;;;2.90;0.95;;;;;;;21.40;43.31;100258.59;5072156;28;20086;-75
2022/05/25 04:11:55;;;;;;;2.08;0.85;;;;;;;21.33;43.56;100264.16;5072376;28;20020;-75
2022/05/25 04:14:21;;;;;;;3.08;1.63;;;;;;;21.36;43.37;100263.34;5072010;28;20025;-75
2022/05/25 04:16:48;;;;;;;2.60;0.90;;;;;;;21.46;43.37;100259.78;5072112;28;20032;-75
2022/05/25 04:19:14;;;;;;;1.83;0.82;;;;;;;21.46;43.41;100251.44;5071050;28;20028;-75
2022/05/25 04:21:40;;;;;;;4.47;1.15;;;;;;;21.60;43.21;100256.16;5072206;28;20028;-75
2022/05/25 04:24:06;;;;;;;1.27;0.70;;;;;;;21.46;43.28;100262.56;5072051;28;20060;-75
2022/05/25 04:26:33;;;;;;;3.30;0.70;;;;;;;21.54;43.19;100261.34;5072024;28;20033;-75
2022/05/25 04:29:00;;;;;;;0.85;0.80;;;;;;;21.52;43.32;100272.06;5072143;28;20103;-80
2022/05/25 04:31:26;;;;;;;2.28;0.75;;;;;;;21.30;43.91;100273.25;5072231;28;20028;-74
2022/05/25 04:33:52;;;;;;;2.47;0.82;;;;;;;21.34;43.82;100271.28;5071805;28;20036;-75
2022/05/25 04:36:18;;;;;;;1.70;1.00;;;;;;;21.40;43.85;100263.34;5071872;28;20385;-75
2022/05/25 04:38:44;;;;;;;1.67;0.50;;;;;;;21.42;43.97;100258.97;5070396;28;20108;-79
2022/05/25 04:41:09;;;;;;;1.35;0.60;;;;;;;21.46;43.78;100259.78;5072065;28;20024;-75
2022/05/25 04:43:35;;;;;;;1.42;0.75;;;;;;;21.57;43.54;100257.75;5070680;28;20032;-75
2022/05/25 04:46:10;;;;;;;2.35;0.70;;;;;;;21.35;44.22;100258.97;5071861;28;20082;-75
2022/05/25 04:48:36;;;;;;;0.85;0.50;;;;;;;21.33;44.08;100262.16;5072100;28;20025;-75
2022/05/25 04:51:02;;;;;;;0.85;0.52;;;;;;;21.40;44.06;100250.25;5072049;28;20020;-75
2022/05/25 04:53:28;;;;;;;0.50;0.50;;;;;;;21.52;43.81;100252.59;5071973;28;20047;-75
2022/05/25 04:58:41;;;;;;;1.58;0.85;;;;;;;21.63;43.74;100254.59;5072025;28;20556;-75
2022/05/25 05:01:08;;;;;;;0.82;0.70;;;;;;;21.59;43.97;100252.59;5071509;28;20120;-75
2022/05/25 05:03:35;;;;;;;0.52;0.43;;;;;;;21.49;44.11;100250.63;5071868;28;20024;-75
2022/05/25 05:06:02;;;;;;;0.68;0.50;;;;;;;21.61;44.11;100252.19;5071618;28;20041;-75
2022/05/25 05:08:29;;;;;;;1.60;0.70;;;;;;;21.68;43.64;100246.63;5071904;28;20036;-74
2022/05/25 05:10:56;;;;;;;1.58;0.70;;;;;;;21.75;43.69;100245.81;5071805;28;20040;-75
2022/05/25 05:13:21;;;;;;;0.70;0.50;;;;;;;21.70;43.94;100243.47;5071783;28;20364;-75
2022/05/25 05:15:50;;;;;;;1.65;0.60;;;;;;;21.63;44.27;100254.59;5071174;28;20044;-75
2022/05/25 05:18:17;;;;;;;0.60;0.60;;;;;;;21.75;43.95;100246.59;5071695;28;20111;-81
2022/05/25 05:20:42;;;;;;;1.27;0.70;;;;;;;21.67;44.04;100244.25;5071527;28;20090;-75
2022/05/25 05:23:08;;;;;;;1.05;0.52;;;;;;;21.75;44.11;100243.03;5074602;28;20458;-75
2022/05/25 05:25:35;;;;;;;0.45;0.45;;;;;;;21.87;43.80;100245.41;5075005;28;20056;-76
2022/05/25 05:28:10;;;;;;;0.65;0.55;;;;;;;21.91;43.92;100239.81;5075273;28;20078;-75
2022/05/25 05:30:52;;;;;;;0.47;0.47;;;;;;;22.04;43.63;100236.19;5075290;28;20056;-75
2022/05/25 05:33:18;;;;;;;1.88;0.80;;;;;;;22.06;43.46;100244.13;5075065;28;20040;-75
2022/05/25 05:35:47;;;;;;;0.73;0.47;;;;;;;22.00;43.80;100254.91;5074885;28;20386;-75
2022/05/25 05:38:16;;;;;;;0.30;0.30;;;;;;;21.96;44.03;100251.31;5074801;28;20029;-75
2022/05/25 05:40:42;;;;;;;2.53;0.63;;;;;;;21.91;44.12;100257.28;5075106;28;20035;-76
2022/05/25 05:43:09;;;;;;;1.35;0.60;;;;;;;21.92;44.21;100258.09;5074750;28;20032;-75
2022/05/25 05:45:38;;;;;;;0.57;0.50;;;;;;;21.86;44.39;100252.16;5073378;28;20107;-76
2022/05/25 05:48:26;;;;;;;0.57;0.50;;;;;;;21.82;44.95;100256.91;5073330;28;20095;-81
2022/05/25 05:50:55;;;;;;;0.77;0.40;;;;;;;21.83;44.88;100250.94;5072955;28;20104;-80
2022/05/25 05:53:22;;;;;;;;;;;;;;;21.97;44.55;100246.56;5073843;28;20478;-80
2022/05/25 05:55:48;;;;;;;2.47;1.17;;;;;;;22.26;43.94;100261.19;5073425;28;19916;-75
2022/05/25 05:58:14;;;;;;;0.73;0.60;;;;;;;22.29;44.39;100261.19;5072983;28;20096;-75
2022/05/25 06:00:40;;;;;;;1.15;0.60;;;;;;;22.43;44.22;100263.09;5073574;28;20107;-76
2022/05/25 06:03:06;;;;;;;0.93;0.80;;;;;;;22.42;44.03;100270.66;5073689;28;20016;-75
2022/05/25 06:05:32;;;;;;;1.55;0.80;;;;;;;22.39;44.26;100270.69;5073509;28;20032;-81
2022/05/25 06:08:09;;;;;;;1.45;0.60;;;;;;;22.50;44.33;100265.03;5073230;28;20020;-75
2022/05/25 06:10:36;;;;;;;1.38;0.90;;;;;;;22.40;44.70;100278.63;5073245;28;20556;-75
2022/05/25 06:13:02;;;;;;;0.57;0.57;;;;;;;22.55;44.17;100271.00;5071989;28;20017;-76
2022/05/25 06:20:56;;;;;;;0.63;0.63;;;;;;;22.34;44.82;100280.22;5074541;28;20039;-80
2022/05/25 06:23:22;;;;;;;1.23;0.60;;;;;;;22.20;45.05;100288.63;5074235;28;20024;-75
2022/05/25 06:25:47;;;;;;;2.38;0.77;;;;;;;22.50;44.51;100287.31;5073910;28;20130;-75
2022/05/25 06:28:13;;;;;;;1.08;0.85;;;;;;;22.60;44.45;100305.97;5073823;28;20082;-75
2022/05/25 06:30:38;;;;;;;0.77;0.70;;;;;;;22.81;44.43;100303.06;5074117;28;20028;-75
2022/05/25 06:33:05;;;;;;;2.63;1.30;;;;;;;22.83;44.60;100308.25;5073910;28;20665;-80
2022/05/25 06:35:33;;;;;;;1.67;1.10;;;;;;;22.91;44.63;100307.03;5073875;28;20032;-75
2022/05/25 06:37:58;;;;;;;2.63;1.70;;;;;;;23.09;43.83;100302.13;5073590;28;20035;-75
2022/05/25 06:40:25;;;;;;;2.50;1.63;;;;;;;22.89;44.22;100303.84;5072476;28;20578;-75
2022/05/25 06:42:51;;;;;;;1.95;1.13;;;;;;;22.83;44.29;100322.19;5073546;28;20029;-75
2022/05/25 06:45:17;;;;;;;1.38;1.10;;;;;;;22.69;44.66;100323.81;5073669;28;20471;-77
2022/05/25 06:47:43;;;;;;;2.50;1.50;;;;;;;22.75;44.79;100331.75;5072231;28;20040;-75
2022/05/25 06:50:10;;;;;;;1.65;1.00;;;;;;;23.08;44.06;100333.97;5073606;28;20372;-75
2022/05/25 06:52:35;;;;;;;2.83;0.88;;;;;;;23.05;44.45;100320.06;5073577;28;20035;-76
2022/05/25 06:55:01;;;;;;;3.63;0.95;;;;;;;22.90;44.66;100348.03;5073033;28;20471;-76
2022/05/25 06:57:27;;;;;;;2.42;1.23;;;;;;;22.91;44.68;100341.25;5073207;28;20032;-75
2022/05/25 06:59:53;;;;;;;2.95;1.30;;;;;;;23.01;44.42;100359.09;5071973;28;20028;-75
2022/05/25 07:02:19;;;;;;;5.93;1.02;;;;;;;22.95;44.66;100346.78;5071900;28;20028;-75
2022/05/25 07:04:44;;;;;;;4.57;1.35;;;;;;;23.14;44.67;100353.84;5073197;28;20479;-74
2022/05/25 07:07:10;;;;;;;11.05;2.13;;;;;;;23.38;44.42;100346.53;5072102;28;20021;-76
2022/05/25 07:09:39;;;;;;;14.48;2.47;;;;;;;23.48;44.86;100346.44;5073388;28;20112;-75
2022/05/25 07:12:07;;;;;;;2.45;0.60;;;;;;;23.29;45.34;100354.56;5072936;28;20028;-74
2022/05/25 07:14:35;;;;;;;2.53;1.10;;;;;;;23.69;43.84;100345.50;5073236;28;20090;-75
2022/05/25 07:17:02;;;;;;;8.52;1.92;;;;;;;23.54;44.30;100350.38;5071882;28;20536;-75
2022/05/25 07:19:28;;;;;;;6.07;1.38;;;;;;;23.65;43.74;100360.66;5071762;28;20078;-74
2022/05/25 07:21:54;;;;;;;3.88;1.38;;;;;;;23.46;43.45;100367.56;5071033;28;20079;-75
2022/05/25 07:24:20;;;;;;;10.00;2.55;;;;;;;23.46;43.29;100362.00;5072624;28;20059;-75
2022/05/25 07:26:46;;;;;;;2.72;0.98;;;;;;;23.49;43.31;100366.75;5071678;28;20029;-76
2022/05/25 07:29:12;;;;;;;5.97;1.27;;;;;;;23.69;42.70;100373.38;5071496;28;20451;-74
2022/05/25 07:31:48;;;;;;;8.20;2.08;;;;;;;23.75;42.67;100368.16;5070408;28;20082;-79
2022/05/25 07:34:26;;;;;;;10.80;2.05;;;;;;;23.63;43.02;100380.59;5070897;28;20055;-78
2022/05/25 07:37:03;;;;;;;6.75;2.08;;;;;;;23.92;42.80;100395.09;5070719;28;20028;-74
2022/05/25 07:39:36;;;;;;;4.53;1.48;;;;;;;23.66;42.64;100385.38;5068084;28;20390;-78
2022/05/25 07:42:04;;;;;;;2.53;0.95;;;;;;;23.35;43.31;100387.16;5068688;28;20031;-75
2022/05/25 07:44:33;;;;;;;7.35;2.45;;;;;;;23.97;42.18;100386.31;5070409;28;20044;-75
2022/05/25 07:46:59;;;;;;;5.25;1.60;;;;;;;24.10;41.58;100397.72;5071536;28;20031;-77
2022/05/25 07:49:25;;;;;;;7.72;1.35;;;;;;;23.71;42.51;100390.50;5103746;28;20116;-75
2022/05/25 07:51:53;;;;;;;6.68;1.20;;;;;;;24.22;41.42;100399.22;5071078;28;20036;-75
2022/05/25 07:54:18;;;;;;;5.03;1.30;;;;;;;23.93;42.29;100399.47;5071203;28;20032;-75
2022/05/25 07:56:44;;;;;;;10.98;2.15;;;;;;;24.06;41.71;100406.16;5072280;28;20499;-75
2022/05/25 07:59:15;;;;;;;7.45;1.63;;;;;;;24.08;41.39;100405.72;5072407;28;20024;-74
2022/05/25 08:07:21;;;;;;;10.80;1.97;;;;;;;23.83;41.52;100407.97;5070069;28;20105;-75
2022/05/25 08:09:48;;;;;;;6.07;1.35;;;;;;;24.11;41.38;100407.72;5071086;28;20077;-75
2022/05/25 08:12:15;;;;;;;12.25;2.50;;;;;;;24.16;41.29;100418.41;5070851;28;20028;-75
2022/05/25 08:14:41;;;;;;;8.32;1.92;;;;;;;24.26;41.02;100420.31;5080890;28;20052;-76
2022/05/25 08:17:07;;;;;;;4.72;1.48;;;;;;;24.40;40.50;100427.75;5080563;28;20098;-75
2022/05/25 08:19:33;;;;;;;6.57;1.85;;;;;;;24.20;40.29;100423.97;5080127;28;20052;-74
2022/05/25 08:21:59;;;;;;;7.22;1.77;;;;;;;24.17;40.59;100425.56;5069999;28;20036;-75
2022/05/25 08:24:25;;;;;;;10.75;2.15;;;;;;;24.50;39.85;100431.66;5070503;28;20117;-78
2022/05/25 08:26:50;;;;;;;5.00;1.80;;;;;;;23.82;40.69;100421.13;5071857;28;20032;-74
2022/05/25 08:29:16;;;;;;;2.58;1.00;;;;;;;24.00;40.24;100434.91;5071572;28;20036;-76
2022/05/25 08:31:42;;;;;;;7.57;1.35;;;;;;;23.76;40.35;100445.06;5071347;28;20032;-79
2022/05/25 08:34:08;;;;;;;10.30;1.90;;;;;;;23.63;40.46;100435.59;5071630;28;20460;-76
2022/05/25 08:36:33;;;;;;;5.18;2.10;;;;;;;23.96;39.57;100445.31;5069501;28;20035;-75
2022/05/25 08:39:00;;;;;;;5.25;2.20;;;;;;;24.47;39.36;100454.81;5070581;28;20440;-81
2022/05/25 08:41:32;;;;;;;13.25;2.95;;;;;;;24.44;39.68;100455.66;5071752;28;20064;-81
2022/05/25 08:44:00;;;;;;;6.00;1.65;;;;;;;24.61;39.29;100471.44;5071923;28;20032;-78
2022/05/25 08:46:28;;;;;;;7.72;2.17;;;;;;;24.48;39.31;100468.38;5067663;28;20028;-76
2022/05/25 08:48:54;;;;;;;5.55;1.80;;;;;;;24.32;39.43;100468.09;5070415;28;20020;-79
2022/05/25 08:51:25;;;;;;;12.27;2.58;;;;;;;24.01;39.29;100461.59;5069612;28;20450;-80
2022/05/25 08:53:53;;;;;;;2.40;1.33;;;;;;;23.89;39.41;100476.06;5073439;28;20107;-78
2022/05/25 08:56:37;;;;;;;4.15;1.05;;;;;;;24.04;38.98;100466.38;5069993;28;20086;-76
2022/05/25 08:59:17;;;;;;;8.57;1.83;;;;;;;24.29;38.25;100475.31;5074187;28;20485;-80
2022/05/25 09:01:51;;;;;;;6.28;1.83;;;;;;;24.63;37.88;100477.41;5073503;28;20032;-77
2022/05/25 09:04:42;;;;;;;10.02;2.47;;;;;;;24.55;38.01;100473.88;5074839;28;20460;-80
2022/05/25 09:07:42;;;;;;;6.68;1.90;;;;;;;24.11;38.57;100471.91;5075484;28;20032;-79
2022/05/25 09:10:10;;;;;;;3.17;1.08;;;;;;;24.42;38.28;100463.69;5075404;28;20028;-79
2022/05/25 09:12:52;;;;;;;7.50;1.65;;;;;;;24.40;38.32;100466.06;5074925;28;20107;-78
2022/05/25 09:15:23;;;;;;;5.47;1.45;;;;;;;24.77;37.26;100459.69;5071924;28;20533;-76
2022/05/25 09:17:58;;;;;;;3.75;1.20;;;;;;;24.44;37.89;100467.63;5102869;27;20474;-75
2022/05/25 09:20:28;;;;;;;4.63;1.13;;;;;;;24.66;37.13;100481.38;5076617;28;20027;-78
2022/05/25 09:22:55;;;;;;;7.00;1.70;;;;;;;24.88;36.89;100472.34;5074827;28;20044;-75
2022/05/25 09:25:21;;;;;;;2.80;0.90;;;;;;;24.53;37.09;100484.69;5073506;28;20105;-76
2022/05/25 09:28:04;;;;;;;4.85;0.90;;;;;;;24.66;37.49;100484.16;5078550;28;20024;-74
2022/05/25 09:30:33;;;;;;;3.88;0.98;;;;;;;24.95;37.17;100496.63;5075007;28;20028;-76
2022/05/25 09:33:03;;;;;;;4.27;0.90;;;;;;;25.12;37.69;100500.44;5074811;28;20017;-78
2022/05/25 09:35:34;;;;;;;3.15;1.00;;;;;;;25.02;39.04;100495.75;5074252;28;20055;-76
2022/05/25 09:38:02;;;;;;;3.67;0.98;;;;;;;25.32;39.15;100500.59;5080653;28;20016;-76
2022/05/25 09:40:39;;;;;;;19.85;3.95;;;;;;;25.22;39.08;100499.50;5079615;28;20459;-79
2022/05/25 09:43:08;;;;;;;6.20;1.35;;;;;;;25.13;38.82;100513.19;5074695;28;20043;-77
2022/05/25 09:45:47;;;;;;;8.75;1.30;;;;;;;25.27;38.87;100504.63;5080437;28;20110;-78
2022/05/25 09:48:30;;;;;;;2.43;0.50;;;;;;;24.92;38.99;100517.00;5072820;28;20111;-79
2022/05/25 09:51:25;;;;;;;3.22;0.80;;;;;;;25.38;37.80;100512.88;5073348;28;20050;-77
2022/05/25 09:53:55;;;;;;;3.72;1.10;;;;;;;25.99;37.19;100524.81;5053185;28;20032;-80
2022/05/25 09:56:29;;;;;;;9.20;1.55;;;;;;;26.14;37.46;100530.19;5073370;28;20105;-80
2022/05/25 09:58:59;;;;;;;5.45;1.00;;;;;;;25.58;37.44;100530.59;5080759;28;20109;-79
2022/05/25 10:01:40;;;;;;;1.27;0.60;;;;;;;25.71;37.24;100542.00;5078284;28;20027;-77
2022/05/25 10:04:07;;;;;;;4.93;0.80;;;;;;;25.93;37.28;100537.72;5109347;27;20024;-79
2022/05/25 10:06:48;;;;;;;4.35;0.80;;;;;;;25.57;37.53;100536.63;5092229;28;20036;-76
2022/05/25 10:09:27;;;;;;;4.38;0.75;;;;;;;26.11;36.48;100545.03;5082252;28;20092;-80
2022/05/25 10:11:54;;;;;;;8.35;2.50;;;;;;;26.54;36.02;100533.97;5094150;28;20032;-77
2022/05/25 10:14:40;;;;;;;4.45;1.20;;;;;;;26.32;36.72;100558.72;5074109;28;20025;-76
2022/05/25 10:17:16;;;;;;;6.57;0.73;;;;;;;26.25;35.45;100564.44;5072153;28;20103;-76
2022/05/25 10:19:51;;;;;;;2.63;0.80;;;;;;;26.09;35.29;100565.06;5073826;28;20020;-79
2022/05/25 10:22:42;;;;;;;4.05;0.90;;;;;;;25.50;35.39;100568.28;5076094;28;20533;-76
2022/05/25 10:25:29;;;;;;;1.92;0.70;;;;;;;25.40;35.06;100553.22;5072132;28;20131;-74
2022/05/25 10:27:58;;;;;;;3.80;0.98;;;;;;;25.59;35.09;100576.16;5078423;28;20028;-74
2022/05/25 10:36:47;;;;;;;5.22;1.30;;;;;;;25.26;35.38;100595.31;5079721;28;20584;-75
2022/05/25 10:39:36;;;;;;;1.98;0.95;;;;;;;25.44;34.99;100604.28;5107524;27;20036;-75
2022/05/25 10:42:16;;;;;;;5.85;1.50;;;;;;;25.92;34.55;100606.13;5068566;28;20032;-76
2022/05/25 10:44:59;;;;;;;6.75;1.10;;;;;;;25.87;34.83;100614.97;5118186;27;20032;-77
2022/05/25 10:47:50;;;;;;;3.33;0.88;;;;;;;26.23;34.73;100636.88;5080729;28;20035;-77
2022/05/25 10:50:42;;;;;;;1.50;0.60;;;;;;;26.33;35.23;100644.31;5084171;28;20379;-78
2022/05/25 10:53:11;;;;;;;1.63;0.50;;;;;;;25.74;36.69;100653.13;5087659;28;20017;-76
2022/05/25 10:56:01;;;;;;;1.50;0.50;;;;;;;25.72;37.17;100647.16;5074477;28;20036;-76
2022/05/25 10:59:00;;;;;;;1.77;0.60;;;;;;;25.56;38.11;100638.53;5071329;28;20151;-77
2022/05/25 11:02:08;;;;;;;1.02;0.50;;;;;;;25.57;38.92;100637.31;5071207;28;20031;-76
2022/05/25 11:04:36;;;;;;;9.43;1.30;;;;;;;25.88;38.35;100635.34;5100687;28;20052;-77
2022/05/25 11:07:33;;;;;;;6.63;1.42;;;;;;;25.82;39.02;100637.81;5072153;28;20379;-77
2022/05/25 11:10:20;;;;;;;2.75;0.80;;;;;;;25.93;38.62;100638.50;5070909;28;20027;-77
2022/05/25 11:13:23;;;;;;;5.82;1.30;;;;;;;25.97;37.26;100642.03;5097255;28;20029;-77
2022/05/25 11:16:13;;;;;;;21.55;11.85;;;;;;;25.92;37.26;100653.72;5058790;28;20056;-77
2022/05/25 11:18:57;;;;;;;8.10;1.23;;;;;;;25.55;37.08;100654.53;5081089;28;20032;-79
2022/05/25 11:21:42;;;;;;;5.97;1.30;;;;;;;25.69;36.96;100640.38;5077429;28;20101;-78
2022/05/25 11:24:45;;;;;;;1.75;0.70;;;;;;;26.17;36.89;100638.56;5082492;28;20101;-78
2022/05/25 11:27:27;;;;;;;3.70;1.45;;;;;;;26.31;36.57;100643.16;5075455;28;20135;-76
2022/05/25 11:30:02;;;;;;;5.85;1.00;;;;;;;26.07;36.31;100650.69;5090696;28;20076;-77
2022/05/25 11:32:36;;;;;;;14.57;2.63;;;;;;;26.60;35.86;100640.72;5092102;28;20483;-77
2022/05/25 11:35:26;;;;;;;3.30;1.38;;;;;;;26.70;35.95;100646.16;5084848;28;20128;-77
2022/05/25 11:38:17;;;;;;;13.77;2.25;;;;;;;26.21;35.66;100642.88;5111780;27;20028;-80
2022/05/25 11:41:07;;;;;;;5.35;1.05;;;;;;;26.51;35.41;100656.06;5077405;28;20101;-77
2022/05/25 11:43:47;;;;;;;;;;;;;;;26.83;34.89;100649.16;5082771;28;20060;-80
2022/05/25 11:46:31;;;;;;;2.58;0.70;;;;;;;27.30;34.67;100657.56;5081444;28;19912;-80
2022/05/25 11:49:15;;;;;;;4.35;1.08;;;;;;;27.01;33.80;100669.25;5082236;28;20026;-82
2022/05/25 11:51:52;;;;;;;5.75;0.75;;;;;;;26.77;33.32;100678.88;5081949;28;20134;-79
2022/05/25 11:54:48;;;;;;;5.57;1.35;;;;;;;26.69;32.86;100677.41;5081297;28;20024;-78
2022/05/25 11:57:35;;;;;;;2.72;0.70;;;;;;;26.39;32.97;100697.88;5082485;28;20150;-87
2022/05/25 12:00:41;;;;;;;1.85;0.63;;;;;;;26.63;33.04;100707.94;5080132;28;20028;-85
2022/05/25 12:03:39;;;;;;;0.30;0.20;;;;;;;27.25;33.08;100716.94;5081321;28;20032;-82
2022/05/25 12:06:59;;;;;;;4.18;1.02;;;;;;;27.17;33.14;100707.06;5080151;28;20039;-79
2022/05/25 12:10:00;;;;;;;4.72;0.95;;;;;;;27.46;32.32;100713.75;5018480;28;20022;-76
2022/05/25 12:12:41;;;;;;;18.88;2.22;;;;;;;27.49;32.21;100712.88;5083081;28;20047;-80
2022/05/25 12:15:30;;;;;;;3.75;0.80;;;;;;;27.39;32.47;100725.09;5079144;28;20024;-79